Time;durP1;ratioP1;P1;durP2;ratioP2;P2;SDS_P1;SDS_P2;PMS_P1;PMS_P2;Temp;Humidity;BMP_temperature;BMP_pressure;BME280_temperature;BME280_humidity;BME280_pressure;Samples;Min_cycle;Max_cycle;Signal;HPM_P1;HPM_P2
2021/01/11 00:01:12;;;;;;;28.35;14.15;;;;;;;-2.78;90.49;100124.59;3514207;28;20493;-54
2021/01/11 00:02:54;;;;;;;30.35;13.63;;;;;;;-2.78;90.54;100122.06;3516130;28;20213;-54
2021/01/11 00:04:36;;;;;;;32.80;14.07;;;;;;;-2.76;90.56;100120.53;3517116;28;20044;-54
2021/01/11 00:06:18;;;;;;;31.88;13.25;;;;;;;-2.75;90.28;100110.47;3516137;28;20540;-53
2021/01/11 00:07:59;;;;;;;40.88;17.65;;;;;;;-2.76;90.41;100103.63;3515410;28;20047;-54
2021/01/11 00:09:41;;;;;;;29.27;14.05;;;;;;;-2.77;90.25;100106.97;3518065;28;20048;-54
2021/01/11 00:11:23;;;;;;;40.58;16.98;;;;;;;-2.79;89.66;100111.03;3515941;28;20047;-53
2021/01/11 00:13:05;;;;;;;38.55;16.35;;;;;;;-2.81;89.84;100105.84;3517691;28;20404;-53
2021/01/11 00:14:47;;;;;;;40.58;17.45;;;;;;;-2.83;89.76;100107.41;3521526;28;20056;-53
2021/01/11 00:16:29;;;;;;;39.50;17.40;;;;;;;-2.87;89.41;100102.84;3519781;28;20097;-55
2021/01/11 00:18:10;;;;;;;42.35;17.05;;;;;;;-2.90;89.37;100105.19;3523634;28;20350;-54
2021/01/11 00:19:52;;;;;;;43.20;18.05;;;;;;;-2.92;89.33;100113.44;3521399;28;20058;-53
2021/01/11 00:21:34;;;;;;;38.38;16.27;;;;;;;-2.97;89.04;100110.56;3519892;28;20051;-53
2021/01/11 00:23:15;;;;;;;42.10;17.65;;;;;;;-3.01;88.98;100114.53;3524643;28;20051;-53
2021/01/11 00:24:57;;;;;;;32.38;15.82;;;;;;;-3.05;88.57;100116.72;3522703;28;20052;-52
2021/01/11 00:26:39;;;;;;;41.00;17.70;;;;;;;-3.08;88.72;100112.28;3521510;28;20052;-53
2021/01/11 00:28:21;;;;;;;39.55;16.80;;;;;;;-3.10;88.67;100120.56;3524632;28;20048;-50
2021/01/11 00:30:05;;;;;;;42.88;16.13;;;;;;;-3.13;88.96;100120.31;3521734;28;20051;-53
2021/01/11 00:31:47;;;;;;;41.95;18.00;;;;;;;-3.16;89.37;100123.53;3519790;28;20043;-53
2021/01/11 00:33:29;;;;;;;44.15;18.83;;;;;;;-3.16;89.49;100132.78;3524439;28;20052;-53
2021/01/11 00:35:12;;;;;;;43.37;18.03;;;;;;;-3.20;89.48;100140.19;3521294;28;20287;-55
2021/01/11 00:36:58;;;;;;;43.95;18.77;;;;;;;-3.24;89.32;100138.16;3523429;28;20290;-52
2021/01/11 00:38:39;;;;;;;47.00;18.42;;;;;;;-3.28;88.81;100136.16;3522592;28;20052;-54
2021/01/11 00:40:21;;;;;;;44.90;19.67;;;;;;;-3.33;88.71;100132.41;3517161;28;20083;-52
2021/01/11 00:42:03;;;;;;;45.25;18.67;;;;;;;-3.37;88.75;100132.94;3510927;28;20063;-50
2021/01/11 00:43:46;;;;;;;38.53;16.42;;;;;;;-3.39;89.12;100129.41;3523459;28;20058;-54
2021/01/11 00:45:27;;;;;;;37.50;16.80;;;;;;;-3.41;89.09;100126.75;3520913;28;20043;-52
2021/01/11 00:47:09;;;;;;;38.17;16.77;;;;;;;-3.42;89.23;100129.16;3524586;28;20055;-53
2021/01/11 00:48:51;;;;;;;41.90;18.73;;;;;;;-3.46;88.26;100122.09;3519604;28;20050;-53
2021/01/11 00:50:33;;;;;;;41.70;18.60;;;;;;;-3.50;88.35;100131.13;3520897;28;20044;-53
2021/01/11 00:52:15;;;;;;;40.17;17.48;;;;;;;-3.58;88.42;100130.53;3524363;28;20050;-55
2021/01/11 00:53:57;;;;;;;44.53;18.17;;;;;;;-3.62;88.63;100127.66;3519778;28;20051;-53
2021/01/11 00:55:38;;;;;;;43.08;18.08;;;;;;;-3.69;88.21;100128.81;3521034;28;20051;-54
2021/01/11 00:57:20;;;;;;;37.67;18.30;;;;;;;-3.71;88.89;100132.00;3523274;28;20515;-50
2021/01/11 00:59:02;;;;;;;37.90;16.67;;;;;;;-3.74;89.51;100140.25;3519278;28;20040;-55
2021/01/11 01:00:44;;;;;;;40.83;17.95;;;;;;;-3.73;89.60;100141.13;3524380;28;20101;-54
2021/01/11 01:02:27;;;;;;;39.85;17.85;;;;;;;-3.78;89.61;100144.19;3519986;28;20047;-53
2021/01/11 01:04:08;;;;;;;36.95;16.40;;;;;;;-3.80;89.25;100145.75;3517564;28;20519;-53
2021/01/11 01:05:50;;;;;;;41.50;17.85;;;;;;;-3.83;89.37;100140.41;3510004;28;20051;-51
2021/01/11 01:07:31;;;;;;;37.70;17.20;;;;;;;-3.85;89.22;100134.34;3520940;28;20054;-53
2021/01/11 01:09:13;;;;;;;45.97;18.10;;;;;;;-3.88;89.37;100139.19;3519335;28;20044;-51
2021/01/11 01:10:55;;;;;;;38.00;16.80;;;;;;;-3.94;88.92;100136.19;3524060;28;20051;-53
2021/01/11 01:12:37;;;;;;;36.17;16.63;;;;;;;-3.97;89.00;100138.47;3519550;28;20058;-51
2021/01/11 01:14:19;;;;;;;36.70;16.42;;;;;;;-4.01;88.37;100144.94;3522144;28;20051;-51
2021/01/11 01:16:01;;;;;;;38.90;17.08;;;;;;;-4.05;88.84;100137.84;3523168;28;20063;-54
2021/01/11 01:17:43;;;;;;;34.45;16.70;;;;;;;-4.05;89.54;100135.31;3520892;28;20044;-52
2021/01/11 01:19:24;;;;;;;41.53;16.75;;;;;;;-4.05;89.52;100134.44;3523218;28;21280;-52
2021/01/11 01:21:06;;;;;;;44.80;18.98;;;;;;;-4.05;89.86;100137.84;3509587;28;20052;-53
2021/01/11 01:22:48;;;;;;;41.28;18.70;;;;;;;-4.05;90.21;100137.84;3514587;28;20644;-53
2021/01/11 01:24:30;;;;;;;39.03;17.55;;;;;;;-4.05;90.19;100135.31;3523915;28;20048;-54
2021/01/11 01:26:11;;;;;;;41.40;18.05;;;;;;;-4.04;90.06;100136.22;3519861;28;20047;-54
2021/01/11 01:27:53;;;;;;;41.17;17.00;;;;;;;-4.05;90.14;100140.38;3520408;28;20500;-53
2021/01/11 01:29:36;;;;;;;40.08;18.05;;;;;;;-4.04;90.69;100141.28;3523753;28;20427;-51
2021/01/11 01:31:17;;;;;;;43.95;19.05;;;;;;;-4.05;90.81;100132.78;3517650;28;20051;-54
2021/01/11 01:32:59;;;;;;;47.22;20.20;;;;;;;-4.04;90.63;100138.75;3521214;28;20392;-51
2021/01/11 01:34:41;;;;;;;44.17;19.10;;;;;;;-4.05;91.05;100137.84;3523635;28;20134;-50
2021/01/11 01:36:23;;;;;;;48.35;20.50;;;;;;;-4.06;91.09;100136.09;3514004;28;20056;-55
2021/01/11 01:38:05;;;;;;;44.40;18.98;;;;;;;-4.05;91.14;100142.03;3510539;28;20867;-52
2021/01/11 01:39:46;;;;;;;43.60;19.67;;;;;;;-4.07;90.89;100144.44;3522964;28;20424;-54
2021/01/11 01:41:28;;;;;;;53.05;20.23;;;;;;;-4.09;91.29;100142.56;3518910;28;20050;-53
2021/01/11 01:43:10;;;;;;;46.50;20.52;;;;;;;-4.12;90.86;100142.31;3524798;28;20055;-54
2021/01/11 01:44:52;;;;;;;46.83;20.25;;;;;;;-4.17;90.29;100147.00;3522364;28;20520;-52
2021/01/11 01:46:35;;;;;;;48.75;19.77;;;;;;;-4.21;90.76;100145.88;3524177;28;20051;-53
2021/01/11 01:48:17;;;;;;;39.50;17.80;;;;;;;-4.22;90.85;100150.84;3526617;28;20050;-53
2021/01/11 01:50:00;;;;;;;42.13;18.08;;;;;;;-4.23;90.97;100151.59;3522648;28;20055;-55
2021/01/11 01:51:42;;;;;;;36.90;15.65;;;;;;;-4.22;91.44;100156.78;3521990;28;20048;-51
2021/01/11 01:53:24;;;;;;;36.53;15.35;;;;;;;-4.19;91.34;100162.09;3526122;28;20054;-54
2021/01/11 01:55:07;;;;;;;41.88;19.80;;;;;;;-4.18;91.33;100153.72;3522728;28;20051;-51
2021/01/11 01:56:49;;;;;;;45.28;18.95;;;;;;;-4.22;91.35;100154.25;3524403;28;20060;-50
2021/01/11 01:58:31;;;;;;;45.30;19.42;;;;;;;-4.19;91.47;100156.13;3523692;28;20083;-54
2021/01/11 02:00:16;;;;;;;43.35;19.20;;;;;;;-4.21;91.48;100168.66;3522925;28;20053;-54
2021/01/11 02:01:59;;;;;;;38.25;18.38;;;;;;;-4.21;91.57;100172.84;3525938;28;20051;-54
2021/01/11 02:03:41;;;;;;;42.42;17.27;;;;;;;-4.18;91.89;100176.53;3522851;28;20047;-54
2021/01/11 02:05:23;;;;;;;40.85;16.55;;;;;;;-4.16;91.94;100171.59;3522616;28;20097;-50
2021/01/11 02:07:12;;;;;;;46.70;19.77;;;;;;;-4.13;91.87;100169.31;3526184;28;20056;-52
2021/01/11 02:09:00;;;;;;;51.80;21.92;;;;;;;-4.11;92.00;100169.44;3522504;28;20052;-54
2021/01/11 02:11:02;;;;;;;49.50;21.27;;;;;;;-4.11;92.07;100166.91;3523632;28;20503;-50
2021/01/11 02:12:56;;;;;;;50.58;20.67;;;;;;;-4.09;92.28;100165.38;3525576;28;20539;-52
2021/01/11 02:14:49;;;;;;;53.33;21.05;;;;;;;-4.07;92.21;100168.91;3525281;28;20047;-53
2021/01/11 02:16:42;;;;;;;62.75;24.20;;;;;;;-4.05;92.32;100170.78;3522742;28;20052;-47
2021/01/11 02:18:42;;;;;;;54.05;21.23;;;;;;;-4.05;92.44;100172.44;3522506;28;20184;-49
2021/01/11 02:21:03;;;;;;;49.13;21.80;;;;;;;-4.03;92.45;100163.31;3512033;28;20048;-46
2021/01/11 02:22:55;;;;;;;52.80;22.88;;;;;;;-4.01;92.78;100167.75;3522494;28;20087;-47
2021/01/11 02:25:18;;;;;;;60.53;24.77;;;;;;;-3.97;93.04;100151.13;3522564;28;20052;-46
2021/01/11 02:27:12;;;;;;;55.38;22.08;;;;;;;-3.93;93.04;100157.31;3522381;28;20047;-47
2021/01/11 02:28:58;;;;;;;;;;;;;;;-3.92;93.01;100149.84;3524998;28;20077;-46
2021/01/11 02:30:42;;;;;;;53.58;20.80;;;;;;;-3.89;93.08;100141.59;3523288;28;19931;-46
2021/01/11 02:32:26;;;;;;;52.03;20.67;;;;;;;-3.86;93.07;100149.44;3522529;28;20065;-47
2021/01/11 02:34:08;;;;;;;55.97;23.27;;;;;;;-3.83;92.83;100148.03;3525923;28;20096;-47
2021/01/11 02:36:02;;;;;;;51.35;22.25;;;;;;;-3.78;92.96;100150.94;3522376;28;20070;-47
2021/01/11 02:37:44;;;;;;;65.13;23.75;;;;;;;-3.76;93.23;100146.84;3522393;28;20048;-46
2021/01/11 02:39:26;;;;;;;56.75;23.00;;;;;;;-3.72;93.42;100142.91;3525657;28;20047;-46
2021/01/11 02:41:08;;;;;;;56.80;23.67;;;;;;;-3.70;93.42;100129.56;3522400;28;20059;-46
2021/01/11 02:42:49;;;;;;;64.43;25.60;;;;;;;-3.67;93.27;100122.22;3521156;28;20071;-47
2021/01/11 02:44:31;;;;;;;62.55;25.35;;;;;;;-3.60;93.65;100131.19;3511871;28;20084;-46
2021/01/11 02:46:13;;;;;;;57.72;24.38;;;;;;;-3.57;93.53;100123.78;3517245;28;20047;-46
2021/01/11 02:48:05;;;;;;;59.00;23.55;;;;;;;-3.53;93.91;100128.34;3523097;28;20453;-46
2021/01/11 02:49:53;;;;;;;55.63;23.17;;;;;;;-3.49;93.83;100127.81;3524274;28;20503;-46
2021/01/11 02:51:51;;;;;;;53.53;24.65;;;;;;;-3.46;93.56;100115.38;3520873;28;20401;-46
2021/01/11 02:53:40;;;;;;;57.28;22.92;;;;;;;-3.42;93.61;100111.41;3521850;28;20492;-46
2021/01/11 02:55:28;;;;;;;55.47;23.63;;;;;;;-3.39;94.00;100101.50;3525702;28;20051;-48
2021/01/11 02:57:19;;;;;;;47.78;21.60;;;;;;;-3.35;93.91;100106.03;3520866;28;20048;-48
2021/01/11 02:59:09;;;;;;;56.70;22.42;;;;;;;-3.30;93.65;100102.19;3521036;28;20101;-47
2021/01/11 03:00:53;;;;;;;55.22;22.60;;;;;;;-3.26;94.03;100103.31;3511511;28;20048;-49
2021/01/11 03:02:40;;;;;;;51.10;23.10;;;;;;;-3.23;93.86;100109.50;3518350;28;20508;-46
2021/01/11 03:04:23;;;;;;;59.65;24.58;;;;;;;-3.19;93.84;100103.88;3521299;28;20116;-46
2021/01/11 03:06:06;;;;;;;61.35;25.02;;;;;;;-3.16;93.87;100100.69;3525401;28;20086;-47
2021/01/11 03:07:55;;;;;;;53.92;23.88;;;;;;;-3.12;93.90;100102.69;3522132;28;20047;-46
2021/01/11 03:09:39;;;;;;;59.28;23.75;;;;;;;-3.10;93.97;100107.88;3521917;28;20511;-46
2021/01/11 03:11:21;;;;;;;50.33;21.83;;;;;;;-3.09;93.83;100105.47;3525338;28;20048;-46
2021/01/11 03:13:02;;;;;;;50.65;20.88;;;;;;;-3.08;93.87;100113.94;3513380;28;20056;-46
2021/01/11 03:14:44;;;;;;;48.13;22.50;;;;;;;-3.07;93.90;100119.13;3513911;28;20074;-47
2021/01/11 03:16:25;;;;;;;51.33;21.60;;;;;;;-3.06;93.81;100120.91;3525488;28;20058;-46
2021/01/11 03:18:08;;;;;;;52.03;22.30;;;;;;;-3.05;93.94;100120.13;3522188;28;20197;-46
2021/01/11 03:19:50;;;;;;;49.65;21.85;;;;;;;-3.04;93.96;100124.44;3523588;28;20051;-47
2021/01/11 03:21:33;;;;;;;46.78;20.92;;;;;;;-3.02;93.97;100127.09;3523928;28;20500;-47
2021/01/11 03:23:14;;;;;;;47.40;21.30;;;;;;;-3.02;93.68;100125.44;3522903;28;20051;-46
2021/01/11 03:24:56;;;;;;;45.30;20.65;;;;;;;-3.01;93.55;100124.69;3525085;28;20055;-46
2021/01/11 03:26:38;;;;;;;50.22;21.27;;;;;;;-3.00;93.69;100133.19;3520806;28;20051;-47
2021/01/11 03:28:19;;;;;;;46.45;21.95;;;;;;;-3.00;93.82;100130.63;3523059;28;20081;-45
2021/01/11 03:30:01;;;;;;;42.42;19.33;;;;;;;-3.00;93.90;100128.97;3525290;28;20055;-47
2021/01/11 03:31:44;;;;;;;46.33;20.83;;;;;;;-3.00;93.88;100138.25;3520060;28;20570;-46
2021/01/11 03:33:26;;;;;;;47.78;19.75;;;;;;;-2.99;93.63;100134.94;3521197;28;20527;-45
2021/01/11 03:35:08;;;;;;;50.60;23.13;;;;;;;-2.99;93.53;100132.38;3524711;28;20054;-47
2021/01/11 03:36:50;;;;;;;49.25;21.25;;;;;;;-2.98;93.92;100134.16;3522675;28;20448;-46
2021/01/11 03:38:32;;;;;;;48.95;20.95;;;;;;;-2.96;93.76;100131.75;3524744;28;20054;-47
2021/01/11 03:40:14;;;;;;;55.85;21.52;;;;;;;-2.94;93.79;100133.63;3522391;28;20138;-46
2021/01/11 03:41:56;;;;;;;48.97;21.35;;;;;;;-2.91;93.93;100133.84;3516409;28;20075;-46
2021/01/11 03:43:38;;;;;;;47.50;22.45;;;;;;;-2.88;93.82;100136.63;3511148;28;20055;-48
2021/01/11 03:45:20;;;;;;;51.65;22.83;;;;;;;-2.86;93.94;100140.16;3520234;28;20073;-46
2021/01/11 03:47:01;;;;;;;50.13;22.08;;;;;;;-2.85;93.93;100143.56;3521699;28;20539;-47
2021/01/11 03:48:45;;;;;;;43.55;19.52;;;;;;;-2.85;93.76;100141.03;3524784;28;20060;-45
2021/01/11 03:50:26;;;;;;;42.97;20.70;;;;;;;-2.84;93.91;100140.28;3521573;28;20050;-46
2021/01/11 03:52:08;;;;;;;38.75;20.02;;;;;;;-2.82;93.88;100147.22;3522880;28;20054;-47
2021/01/11 03:53:50;;;;;;;43.25;20.77;;;;;;;-2.81;93.67;100143.94;3522546;28;20508;-46
2021/01/11 03:55:31;;;;;;;42.75;20.90;;;;;;;-2.81;93.74;100145.59;3520240;28;20055;-48
2021/01/11 03:57:13;;;;;;;44.17;19.85;;;;;;;-2.80;93.82;100144.81;3525349;28;20059;-47
2021/01/11 03:58:55;;;;;;;44.05;19.27;;;;;;;-2.78;93.55;100150.00;3521525;28;20489;-54
2021/01/11 04:00:36;;;;;;;50.80;20.30;;;;;;;-2.77;93.52;100145.03;3518326;28;20432;-54
2021/01/11 04:02:18;;;;;;;46.45;20.55;;;;;;;-2.77;93.85;100145.03;3510836;28;20051;-51
2021/01/11 04:04:01;;;;;;;44.63;20.52;;;;;;;-2.76;93.66;100144.25;3509997;28;20051;-53
2021/01/11 04:05:45;;;;;;;50.35;21.70;;;;;;;-2.76;93.68;100145.91;3510677;28;20104;-53
2021/01/11 04:07:27;;;;;;;61.20;27.13;;;;;;;-2.74;93.43;100151.97;3510955;28;20056;-53
2021/01/11 04:09:09;;;;;;;49.47;22.83;;;;;;;-2.74;93.51;100160.50;3519175;28;20048;-53
2021/01/11 04:10:52;;;;;;;50.38;22.60;;;;;;;-2.73;93.61;100166.47;3523372;28;20060;-52
2021/01/11 04:12:33;;;;;;;54.72;24.67;;;;;;;-2.73;93.71;100162.25;3523453;28;20056;-51
2021/01/11 04:14:15;;;;;;;51.47;23.77;;;;;;;-2.71;93.50;100162.38;3520360;28;20047;-53
2021/01/11 04:15:57;;;;;;;61.30;27.10;;;;;;;-2.70;93.58;100169.22;3513809;28;20047;-54
2021/01/11 04:17:39;;;;;;;55.58;24.85;;;;;;;-2.69;93.54;100155.75;3521590;28;20069;-55
2021/01/11 04:19:21;;;;;;;59.22;27.17;;;;;;;-2.69;93.77;100166.81;3522295;28;20044;-53
2021/01/11 04:21:03;;;;;;;60.67;28.92;;;;;;;-2.67;93.56;100177.06;3524703;28;20047;-52
2021/01/11 04:22:45;;;;;;;71.80;30.70;;;;;;;-2.67;93.95;100175.44;3522288;28;20055;-52
2021/01/11 04:24:26;;;;;;;69.32;31.80;;;;;;;-2.67;93.71;100170.34;3520807;28;20382;-54
2021/01/11 04:26:08;;;;;;;60.83;28.55;;;;;;;-2.66;93.63;100174.63;3510827;28;20059;-54
2021/01/11 04:27:50;;;;;;;73.00;31.20;;;;;;;-2.65;93.93;100171.34;3518404;28;20063;-54
2021/01/11 04:29:32;;;;;;;70.32;31.17;;;;;;;-2.65;93.61;100173.88;3521127;28;20051;-53
2021/01/11 04:31:14;;;;;;;64.68;28.02;;;;;;;-2.65;93.95;100163.72;3522959;28;20046;-54
2021/01/11 04:32:56;;;;;;;63.92;28.13;;;;;;;-2.65;93.64;100161.19;3520968;28;20101;-54
2021/01/11 04:34:39;;;;;;;69.53;29.92;;;;;;;-2.65;93.87;100156.09;3524128;28;20055;-53
2021/01/11 04:36:20;;;;;;;61.17;28.08;;;;;;;-2.64;93.61;100159.50;3521548;28;20047;-53
2021/01/11 04:38:02;;;;;;;60.17;28.00;;;;;;;-2.63;93.76;100161.28;3522213;28;20058;-54
2021/01/11 04:39:44;;;;;;;57.20;24.48;;;;;;;-2.63;93.71;100158.75;3524661;28;20052;-53
2021/01/11 04:41:29;;;;;;;65.28;28.27;;;;;;;-2.62;93.57;100155.44;3521081;28;20035;-52
2021/01/11 04:43:14;;;;;;;67.78;27.02;;;;;;;-2.61;93.68;100157.22;3514318;28;20071;-53
2021/01/11 04:44:57;;;;;;;54.95;25.63;;;;;;;-2.62;93.69;100166.50;3524553;28;20059;-54
2021/01/11 04:46:39;;;;;;;56.78;25.17;;;;;;;-2.61;93.79;100164.81;3519451;28;20052;-54
2021/01/11 04:48:22;;;;;;;68.88;28.60;;;;;;;-2.60;93.56;100164.03;3519603;28;20158;-51
2021/01/11 04:50:05;;;;;;;56.67;26.77;;;;;;;-2.61;93.44;100157.22;3510273;28;20128;-51
2021/01/11 04:51:46;;;;;;;62.78;28.23;;;;;;;-2.62;93.55;100160.50;3520413;28;20432;-55
2021/01/11 04:53:28;;;;;;;53.28;24.58;;;;;;;-2.62;93.66;100157.97;3521952;28;20499;-53
2021/01/11 04:55:14;;;;;;;55.90;25.00;;;;;;;-2.62;93.20;100157.97;3510686;28;20082;-52
2021/01/11 04:57:00;;;;;;;52.17;23.85;;;;;;;-2.63;93.58;100164.72;3514356;28;20043;-53
2021/01/11 04:58:56;;;;;;;62.70;26.20;;;;;;;-2.64;93.34;100152.78;3510720;28;20044;-54
2021/01/11 05:00:40;;;;;;;49.90;22.65;;;;;;;-2.63;93.44;100151.13;3510157;28;20044;-52
2021/01/11 05:02:22;;;;;;;53.53;24.65;;;;;;;-2.63;93.57;100156.22;3518662;28;20539;-54
2021/01/11 05:04:04;;;;;;;54.28;23.85;;;;;;;-2.63;93.28;100154.56;3521525;28;20044;-52
2021/01/11 05:05:46;;;;;;;63.80;26.60;;;;;;;-2.61;93.35;100162.28;3510051;28;20056;-55
2021/01/11 05:07:31;;;;;;;57.60;28.30;;;;;;;-2.62;93.46;100161.41;3515741;28;20088;-53
2021/01/11 05:09:16;;;;;;;60.20;26.58;;;;;;;-2.62;93.18;100165.59;3522840;28;20051;-54
2021/01/11 05:10:58;;;;;;;54.30;24.90;;;;;;;-2.63;93.17;100159.63;3523632;28;20047;-54
2021/01/11 05:12:40;;;;;;;59.67;26.95;;;;;;;-2.63;93.06;100164.72;3514739;28;20059;-53
2021/01/11 05:14:21;;;;;;;57.97;25.67;;;;;;;-2.62;93.41;100163.03;3510727;28;20052;-55
2021/01/11 05:16:11;;;;;;;56.42;25.77;;;;;;;-2.62;92.95;100160.50;3512999;28;20101;-55
2021/01/11 05:17:53;;;;;;;60.40;25.83;;;;;;;-2.63;93.20;100164.72;3516186;28;20055;-51
2021/01/11 05:19:34;;;;;;;57.15;27.08;;;;;;;-2.62;93.38;100166.50;3523758;28;20058;-53
2021/01/11 05:21:40;;;;;;;64.18;26.92;;;;;;;-2.62;93.25;100161.41;3520951;28;20055;-52
2021/01/11 05:23:22;;;;;;;54.80;25.63;;;;;;;-2.62;93.09;100155.44;3521863;28;20074;-53
2021/01/11 05:25:12;;;;;;;53.78;24.38;;;;;;;-2.61;93.10;100159.75;3523138;28;20059;-54
2021/01/11 05:26:54;;;;;;;53.78;23.42;;;;;;;-2.61;93.28;100154.66;3523310;28;20059;-55
2021/01/11 05:28:35;;;;;;;52.65;23.52;;;;;;;-2.61;93.21;100159.75;3520816;28;20078;-51
2021/01/11 05:30:30;;;;;;;48.97;24.08;;;;;;;-2.60;93.19;100164.03;3521446;28;20069;-52
2021/01/11 05:32:12;;;;;;;56.92;25.92;;;;;;;-2.60;93.30;100171.66;3522349;28;20054;-54
2021/01/11 05:33:54;;;;;;;57.42;25.17;;;;;;;-2.59;93.13;100170.03;3521757;28;20043;-54
2021/01/11 05:35:37;;;;;;;60.08;25.48;;;;;;;-2.59;93.05;100167.47;3524126;28;20097;-53
2021/01/11 05:37:34;;;;;;;58.47;24.45;;;;;;;-2.58;93.17;100175.22;3519713;28;20097;-51
2021/01/11 05:39:16;;;;;;;53.90;24.20;;;;;;;-2.57;93.40;100173.56;3521544;28;20413;-53
2021/01/11 05:41:16;;;;;;;59.58;26.02;;;;;;;-2.57;93.09;100176.97;3523891;28;20462;-51
2021/01/11 05:42:59;;;;;;;64.93;28.35;;;;;;;-2.56;93.34;100178.75;3522667;28;20508;-54
2021/01/11 05:44:40;;;;;;;64.75;27.83;;;;;;;-2.55;93.03;100179.63;3520552;28;20043;-55
2021/01/11 05:46:27;;;;;;;65.82;30.10;;;;;;;-2.56;93.22;100173.66;3524090;28;20055;-55
2021/01/11 05:48:10;;;;;;;65.82;28.73;;;;;;;-2.54;93.11;100173.78;3520896;28;20047;-54
2021/01/11 05:50:07;;;;;;;61.70;28.50;;;;;;;-2.54;93.33;100169.59;3521347;28;20420;-54
2021/01/11 05:51:48;;;;;;;63.22;27.90;;;;;;;-2.50;93.13;100173.22;3523802;28;20063;-55
2021/01/11 05:53:31;;;;;;;66.50;29.92;;;;;;;-2.50;93.58;100169.03;3520246;28;20051;-51
2021/01/11 05:55:20;;;;;;;74.80;32.53;;;;;;;-2.48;93.53;100171.69;3520554;28;20082;-55
2021/01/11 05:57:01;;;;;;;60.13;28.58;;;;;;;-2.47;93.15;100176.00;3523705;28;20054;-53
2021/01/11 05:59:02;;;;;;;75.03;31.35;;;;;;;-2.48;93.03;100176.75;3510485;28;20505;-54
2021/01/11 06:00:44;;;;;;;63.30;28.95;;;;;;;-2.46;92.91;100182.84;3516082;28;20048;-53
2021/01/11 06:02:25;;;;;;;63.88;28.73;;;;;;;-2.45;93.31;100182.06;3523368;28;20047;-54
2021/01/11 06:04:07;;;;;;;83.22;34.22;;;;;;;-2.45;93.02;100179.53;3519908;28;20101;-54
2021/01/11 06:05:49;;;;;;;66.70;29.60;;;;;;;-2.44;93.33;100181.31;3518388;28;20044;-55
2021/01/11 06:07:30;;;;;;;65.45;29.88;;;;;;;-2.44;93.15;100187.28;3523772;28;20060;-51
2021/01/11 06:09:14;;;;;;;71.05;30.95;;;;;;;-2.43;93.33;100188.16;3521661;28;20046;-55
2021/01/11 06:11:00;;;;;;;79.40;33.53;;;;;;;-2.44;93.32;100182.19;3520201;28;20393;-52
2021/01/11 06:12:43;;;;;;;65.63;28.27;;;;;;;-2.44;93.10;100181.31;3523519;28;20061;-54
2021/01/11 06:14:25;;;;;;;62.28;29.42;;;;;;;-2.44;93.27;100183.84;3520153;28;20044;-54
2021/01/11 06:16:09;;;;;;;65.85;28.75;;;;;;;-2.45;92.84;100182.94;3522631;28;20039;-54
2021/01/11 06:17:52;;;;;;;63.33;28.52;;;;;;;-2.45;93.06;100192.25;3521994;28;20087;-53
2021/01/11 06:19:34;;;;;;;59.80;27.70;;;;;;;-2.44;93.19;100192.34;3514212;28;20424;-55
2021/01/11 06:21:16;;;;;;;76.05;32.42;;;;;;;-2.43;93.10;100190.69;3508913;28;20088;-55
2021/01/11 06:23:04;;;;;;;69.93;31.40;;;;;;;-2.41;93.02;100195.88;3521701;28;20089;-52
2021/01/11 06:24:46;;;;;;;74.63;31.55;;;;;;;-2.39;93.23;100196.88;3521177;28;20418;-53
2021/01/11 06:26:32;;;;;;;74.47;30.98;;;;;;;-2.40;93.06;100193.47;3522944;28;20051;-53
2021/01/11 06:28:14;;;;;;;71.43;30.75;;;;;;;-2.37;93.00;100195.31;3521654;28;20447;-54
2021/01/11 06:29:55;;;;;;;76.40;32.05;;;;;;;-2.34;93.02;100195.56;3522425;28;20051;-54
2021/01/11 06:31:37;;;;;;;75.15;30.98;;;;;;;-2.31;93.47;100200.88;3524461;28;20048;-54
2021/01/11 06:33:26;;;;;;;73.93;30.83;;;;;;;-2.29;93.23;100202.75;3522176;28;20047;-51
2021/01/11 06:35:12;;;;;;;73.13;30.00;;;;;;;-2.25;93.73;100203.84;3519203;28;20040;-54
2021/01/11 06:36:54;;;;;;;65.45;30.52;;;;;;;-2.21;93.46;100197.34;3514836;28;20048;-54
2021/01/11 06:38:38;;;;;;;66.93;29.80;;;;;;;-2.20;93.14;100194.03;3521547;28;20093;-54
2021/01/11 06:40:24;;;;;;;63.08;28.23;;;;;;;-2.20;92.96;100192.38;3523260;28;20392;-54
2021/01/11 06:42:11;;;;;;;69.97;29.23;;;;;;;-2.20;93.29;100187.28;3525611;28;20047;-54
2021/01/11 06:43:54;;;;;;;74.88;28.98;;;;;;;-2.20;93.24;100192.38;3521865;28;20056;-54
2021/01/11 06:45:37;;;;;;;72.32;31.23;;;;;;;-2.22;93.15;100182.88;3522074;28;20052;-52
2021/01/11 06:47:28;;;;;;;60.33;28.85;;;;;;;-2.22;93.15;100180.34;3511675;28;20052;-55
2021/01/11 06:49:27;;;;;;;57.45;27.08;;;;;;;-2.23;92.93;100189.59;3513215;28;20105;-52
2021/01/11 06:51:12;;;;;;;61.83;27.15;;;;;;;-2.24;93.03;100183.63;3513288;28;20039;-53
2021/01/11 06:52:59;;;;;;;68.28;28.92;;;;;;;-2.22;93.13;100185.41;3518439;28;20051;-54
2021/01/11 06:54:44;;;;;;;58.22;27.23;;;;;;;-2.22;92.95;100183.75;3522636;28;20145;-53
2021/01/11 06:56:32;;;;;;;58.42;26.90;;;;;;;-2.19;93.15;100183.97;3521987;28;20051;-54
2021/01/11 06:58:22;;;;;;;66.45;26.85;;;;;;;-2.17;92.93;100187.50;3514028;28;20424;-51
2021/01/11 07:00:07;;;;;;;59.53;28.92;;;;;;;-2.14;93.00;100185.19;3524741;28;20105;-54
2021/01/11 07:01:48;;;;;;;62.15;26.50;;;;;;;-2.11;92.94;100182.84;3516653;28;20056;-55
2021/01/11 07:03:48;;;;;;;56.47;26.05;;;;;;;-2.08;93.03;100190.72;3512203;28;20105;-54
2021/01/11 07:05:47;;;;;;;61.95;26.23;;;;;;;-2.06;92.80;100188.28;3511574;28;20055;-54
2021/01/11 07:07:30;;;;;;;68.88;28.83;;;;;;;-2.03;92.94;100188.50;3522706;28;20534;-54
2021/01/11 07:09:13;;;;;;;68.25;27.52;;;;;;;-2.01;92.77;100184.41;3520793;28;20056;-52
2021/01/11 07:11:04;;;;;;;64.88;27.20;;;;;;;-2.00;92.57;100186.19;3525317;28;20054;-54
2021/01/11 07:12:47;;;;;;;60.05;25.83;;;;;;;-2.01;92.61;100176.78;3523160;28;20047;-54
2021/01/11 07:14:59;;;;;;;61.85;26.35;;;;;;;-2.01;92.68;100175.91;3521116;28;20283;-52
2021/01/11 07:16:42;;;;;;;56.92;25.73;;;;;;;-2.01;92.42;100175.91;3525037;28;20059;-54
2021/01/11 07:18:47;;;;;;;53.67;23.52;;;;;;;-2.03;92.44;100170.72;3521662;28;20142;-53
2021/01/11 07:20:40;;;;;;;46.28;22.25;;;;;;;-2.03;92.36;100172.38;3521762;28;20126;-52
2021/01/11 07:22:22;;;;;;;40.63;20.27;;;;;;;-2.03;92.32;100173.25;3523177;28;20504;-54
2021/01/11 07:24:05;;;;;;;45.03;19.88;;;;;;;-2.03;91.90;100175.81;3525096;28;20105;-54
2021/01/11 07:25:49;;;;;;;40.42;19.98;;;;;;;-2.01;92.31;100179.34;3521805;28;20044;-52
2021/01/11 07:27:30;;;;;;;43.95;20.30;;;;;;;-1.99;92.16;100172.69;3524248;28;20051;-54
2021/01/11 07:29:15;;;;;;;41.05;19.45;;;;;;;-1.98;91.66;100176.09;3521834;28;20500;-53
2021/01/11 07:30:56;;;;;;;46.97;20.15;;;;;;;-1.94;91.73;100176.44;3521205;28;20079;-54
2021/01/11 07:32:38;;;;;;;44.72;20.77;;;;;;;-1.92;92.05;100176.56;3525335;28;20048;-55
2021/01/11 07:34:21;;;;;;;49.60;21.40;;;;;;;-1.89;91.86;100180.22;3521657;28;20108;-53
2021/01/11 07:36:03;;;;;;;45.45;21.27;;;;;;;-1.84;91.74;100189.81;3521801;28;20043;-51
2021/01/11 07:37:45;;;;;;;45.67;22.33;;;;;;;-1.83;91.70;100179.75;3525043;28;20097;-53
2021/01/11 07:39:28;;;;;;;49.63;21.13;;;;;;;-1.79;91.79;100176.63;3521976;28;20047;-53
2021/01/11 07:41:23;;;;;;;47.20;21.83;;;;;;;-1.76;91.71;100184.50;3523669;28;20104;-51
2021/01/11 07:43:05;;;;;;;42.72;20.30;;;;;;;-1.74;91.75;100177.84;3523456;28;20052;-52
2021/01/11 07:44:48;;;;;;;42.90;20.33;;;;;;;-1.73;91.45;100187.25;3518219;28;20110;-52
2021/01/11 07:46:29;;;;;;;38.50;19.02;;;;;;;-1.72;91.33;100183.03;3520031;28;20052;-52
2021/01/11 07:48:11;;;;;;;39.25;17.42;;;;;;;-1.73;91.36;100187.25;3517178;28;20420;-52
2021/01/11 07:49:53;;;;;;;36.28;16.10;;;;;;;-1.74;91.02;100182.94;3516229;28;20633;-54
2021/01/11 07:51:36;;;;;;;41.15;18.02;;;;;;;-1.74;90.73;100182.94;3514266;28;20420;-51
2021/01/11 07:53:17;;;;;;;40.83;18.40;;;;;;;-1.74;90.33;100187.16;3518392;28;20047;-50
2021/01/11 07:55:00;;;;;;;39.90;18.20;;;;;;;-1.72;90.33;100188.13;3517179;28;20043;-53